Stanley, ID

23:20 MDT le 25 septembre 2016 (GMT -0600)
Stanley | | Change Station

Alt. 6496 ft 44.17 °N, 114.93 °W | Updated 29 minutes ago

Clear
43 ° F
Paraît 40 ° F
N
5
Vent Variable Vent de Sud
Gusts mph

Aujourd'hui
Haut(e) -- | Bas -- ° F
--% Risque de précip.
Hier
Haut(e) -- | Bas -- ° F
Precip. -- pouce
Pression 30.42 pouce
Visibilité -9999.0 Miles terrestres
Nuages
Refroidissement éolien 40 ° F
Point de rosée 38 ° F
Humidité 82%
Précipitations 0.00 pouce
Profondeur de la couche neigeuse Non disponible.
7:31 AM 7:30 PM
Lune descendante, 22% visible
METAR KSNT 260451Z AUTO 17004KT 06/03 A3054 RMK AO1 SLP299 T00610033
Pression 30.42 pouce
Visibilité -9999.0 Miles terrestres
Nuages
Refroidissement éolien 40 ° F
Point de rosée 38 ° F
Humidité 82%
Précipitations 0.00 pouce
Profondeur de la couche neigeuse Non disponible.
7:31 AM 7:30 PM
Lune descendante, 22% visible
METAR KSNT 260451Z AUTO 17004KT 06/03 A3054 RMK AO1 SLP299 T00610033

10-Day Weather Forecast

Almanac

Astronomie

Sep. 25, 2016 Lever Coucher
Temps réel
Crépuscule civil
Crépuscule nautique
Crépuscule astronomique
Lune
Durée de lumière visible
Longueur du jour
Tomorrow will be .
, % of the Moon is Illuminated

Extrêmes aujourd'hui

State Highs State Lows

Community

WunderPhotos

Upload Photos

1,941,852 Photos téléchargées !

WunderBlog® & News

Nearby

Qualité de l'air

  Qualité de l'air Indice de la qualité de l'air Polluant
Not available.

Épaisseur de neige

Station Depth Altitude

Activité sismique

Ville Distance Mag. Time & Date
Minimum magnitude displayed is 2.5.

Températures des eaux côtières

Lieu Température

Stations

Stations météo à proximité

Emplacement de la station Température Refroidissement éolien Point de rosée Humidité Vent Precip. Alt. Mise à jour Type
                   

Watches & Warnings

There are currently no watches in effect.